Time;durP1;ratioP1;P1;durP2;ratioP2;P2;SDS_P1;SDS_P2;PMS_P1;PMS_P2;Temp;Humidity;BMP_temperature;BMP_pressure;BME280_temperature;BME280_humidity;BME280_pressure;Samples;Min_cycle;Max_cycle;Signal;HPM_P1;HPM_P2
2023/07/14 00:01:54;;;;;;;25.58;7.63;;;13.60;99.90;;;12.65;100.00;101288.28;4929843;28;20046;-77
2023/07/14 00:04:33;;;;;;;172.38;25.55;;;13.60;99.90;;;12.64;100.00;101282.13;4947887;28;20054;-78
2023/07/14 00:07:00;;;;;;;8.07;3.72;;;13.60;99.90;;;12.63;100.00;101282.19;4978736;28;20065;-77
2023/07/14 00:09:28;;;;;;;8.90;2.88;;;13.60;99.90;;;12.62;100.00;101284.00;4945713;28;20074;-76
2023/07/14 00:11:55;;;;;;;31.17;7.90;;;13.60;99.90;;;12.65;100.00;101281.19;4942120;28;20594;-77
2023/07/14 00:14:21;;;;;;;22.13;7.88;;;13.60;99.90;;;12.66;100.00;101284.72;4955408;28;20034;-77
2023/07/14 00:16:47;;;;;;;31.48;7.85;;;13.60;99.90;;;12.65;100.00;101275.91;4927977;28;20392;-77
2023/07/14 00:19:16;;;;;;;75.13;58.25;;;13.70;99.90;;;12.64;100.00;101281.28;4937107;28;20103;-78
2023/07/14 00:21:44;;;;;;;14.90;5.60;;;13.60;99.90;;;12.61;100.00;101287.56;4964726;28;20026;-76
2023/07/14 00:24:16;;;;;;;22.35;7.03;;;13.60;99.90;;;12.60;100.00;101288.47;4951369;28;20043;-77
2023/07/14 00:26:56;;;;;;;17.67;5.30;;;13.60;99.90;;;12.60;100.00;101296.41;4979258;28;20503;-78
2023/07/14 00:29:37;;;;;;;13.38;4.40;;;13.60;99.90;;;12.59;100.00;101291.19;4970786;28;20046;-78
2023/07/14 00:32:19;;;;;;;34.70;18.77;;;13.60;99.90;;;12.56;100.00;101283.41;4955778;28;20031;-78
2023/07/14 00:34:45;;;;;;;203.27;107.70;;;13.50;99.90;;;12.53;100.00;101295.00;4961907;28;20030;-76
2023/07/14 00:37:11;;;;;;;23.90;7.85;;;13.50;99.90;;;12.51;100.00;101287.13;4940202;28;20041;-78
2023/07/14 00:39:45;;;;;;;37.17;8.02;;;13.50;99.90;;;12.47;100.00;101288.19;4964576;28;20461;-77
2023/07/14 00:42:16;;;;;;;19.80;8.40;;;13.50;99.90;;;12.45;100.00;101290.03;4941545;28;20038;-77
2023/07/14 00:44:45;;;;;;;27.33;8.15;;;13.40;99.90;;;12.45;100.00;101294.47;4982149;28;20047;-77
2023/07/14 00:47:28;;;;;;;27.00;9.60;;;13.40;99.90;;;12.45;100.00;101297.13;4929325;28;20268;-78
2023/07/14 00:49:55;;;;;;;26.33;8.45;;;13.40;99.90;;;12.44;100.00;101296.25;4949289;28;20092;-77
2023/07/14 00:52:50;;;;;;;23.73;8.18;;;13.40;99.90;;;12.45;100.00;101291.84;4950260;28;20058;-77
2023/07/14 00:55:34;;;;;;;34.38;9.25;;;13.40;99.90;;;12.46;100.00;101302.34;4966844;28;20072;-76
2023/07/14 00:58:00;;;;;;;27.20;8.90;;;13.40;99.90;;;12.45;100.00;101295.31;4945777;28;20045;-77
2023/07/14 01:00:30;;;;;;;30.23;8.95;;;13.40;99.90;;;12.45;100.00;101291.84;4957408;28;20031;-78
2023/07/14 01:03:02;;;;;;;22.40;7.72;;;13.40;99.90;;;12.44;100.00;101290.97;4945513;28;20559;-75
2023/07/14 01:05:28;;;;;;;35.40;8.45;;;13.40;99.90;;;12.43;100.00;101294.53;4971491;28;20045;-76
2023/07/14 01:07:57;;;;;;;30.67;8.35;;;13.40;99.90;;;12.41;100.00;101292.88;4937008;28;20046;-77
2023/07/14 01:10:28;;;;;;;28.10;9.15;;;13.40;99.90;;;12.37;100.00;101291.31;4953831;28;20049;-78
2023/07/14 01:13:03;;;;;;;28.67;8.77;;;13.40;99.90;;;12.34;100.00;101289.69;4962472;28;20389;-77
2023/07/14 01:15:29;;;;;;;29.70;8.00;;;13.30;99.90;;;12.28;100.00;101295.22;4965828;28;20061;-77
2023/07/14 01:17:55;;;;;;;24.83;7.85;;;13.30;99.90;;;12.23;100.00;101298.06;4956698;28;20042;-76
2023/07/14 01:20:21;;;;;;;27.42;8.23;;;13.20;99.90;;;12.20;100.00;101299.97;4938589;28;20039;-77
2023/07/14 01:22:52;;;;;;;27.77;7.63;;;13.20;99.90;;;12.16;100.00;101287.84;4949351;28;20426;-76
2023/07/14 01:25:35;;;;;;;26.55;8.02;;;13.20;99.90;;;12.10;100.00;101300.41;4972020;28;20120;-77
2023/07/14 01:28:07;;;;;;;35.28;15.85;;;13.10;99.90;;;12.05;100.00;101294.47;4962985;28;20672;-77
2023/07/14 01:30:38;;;;;;;32.60;8.02;;;13.10;99.90;;;12.02;100.00;101288.47;4949037;28;20062;-77
2023/07/14 01:33:12;;;;;;;22.98;7.32;;;13.00;99.90;;;11.97;100.00;101301.84;4941479;28;20031;-77
2023/07/14 01:35:42;;;;;;;27.30;8.07;;;13.00;99.90;;;11.95;100.00;101303.69;4959850;28;20058;-77
2023/07/14 01:38:11;;;;;;;36.53;8.73;;;13.00;99.90;;;11.91;100.00;101296.84;4959210;28;20050;-76
2023/07/14 01:40:38;;;;;;;26.05;7.85;;;13.00;99.90;;;11.88;100.00;101302.25;4932095;28;20041;-76
2023/07/14 01:43:06;;;;;;;28.83;8.55;;;12.90;99.90;;;11.86;100.00;101296.16;4957810;28;20038;-77
2023/07/14 01:45:59;;;;;;;29.33;8.32;;;12.90;99.90;;;11.83;100.00;101301.56;4914150;28;20038;-77
2023/07/14 01:48:45;;;;;;;25.75;8.07;;;12.80;99.90;;;11.80;100.00;101306.97;4942343;28;20053;-76
2023/07/14 01:51:13;;;;;;;17.40;8.30;;;12.80;99.90;;;11.78;100.00;101306.19;4949456;28;20037;-78
2023/07/14 01:53:49;;;;;;;31.13;8.30;;;12.80;99.90;;;11.76;100.00;101308.88;4958212;28;20038;-76
2023/07/14 01:56:17;;;;;;;23.23;8.23;;;12.80;99.90;;;11.76;100.00;101303.59;4939141;28;20249;-77
2023/07/14 01:59:08;;;;;;;27.10;7.47;;;12.80;99.90;;;11.79;100.00;101307.88;4956710;28;20046;-77
2023/07/14 02:01:37;;;;;;;35.20;8.18;;;12.80;99.90;;;11.78;100.00;101308.81;4966316;28;20109;-77
2023/07/14 02:04:11;;;;;;;35.72;8.43;;;12.80;99.90;;;11.78;100.00;101308.81;4947080;28;20043;-77
2023/07/14 02:06:39;;;;;;;24.77;7.60;;;12.80;99.90;;;11.80;100.00;101317.53;4967966;28;20035;-77
2023/07/14 02:09:06;;;;;;;22.95;7.95;;;12.80;99.90;;;11.80;100.00;101314.88;4945077;28;20124;-76
2023/07/14 02:11:33;;;;;;;27.00;8.07;;;12.80;99.90;;;11.80;100.00;101315.75;4964032;28;20035;-78
2023/07/14 02:13:59;;;;;;;24.17;8.85;;;12.80;99.90;;;11.80;100.00;101315.75;4949164;28;20158;-76
2023/07/14 02:16:26;;;;;;;17.10;7.55;;;12.80;99.90;;;11.82;100.00;101324.44;4946426;28;20120;-77
2023/07/14 02:18:55;;;;;;;34.00;8.23;;;12.80;99.90;;;11.84;100.00;101329.66;4933317;28;20050;-78
2023/07/14 02:21:32;;;;;;;30.08;13.48;;;12.90;99.90;;;11.86;100.00;101328.69;4955668;28;20128;-77
2023/07/14 02:23:59;;;;;;;40.13;26.02;;;12.90;99.90;;;11.86;100.00;101322.53;4930661;28;20030;-77
2023/07/14 02:26:37;;;;;;;26.00;6.60;;;12.90;99.90;;;11.85;100.00;101323.44;4940868;28;20038;-77
2023/07/14 02:29:10;;;;;;;24.52;6.47;;;12.90;99.90;;;11.86;100.00;101335.75;4952302;28;20031;-77
2023/07/14 02:32:02;;;;;;;25.50;6.40;;;12.90;99.90;;;11.83;100.00;101327.94;4904831;28;20134;-77
2023/07/14 02:34:38;;;;;;;19.73;6.32;;;12.80;99.90;;;11.80;100.00;101330.72;4929443;28;20096;-78
2023/07/14 02:37:39;;;;;;;15.90;6.13;;;12.80;99.90;;;11.80;100.00;101336.00;4939497;28;20623;-78
2023/07/14 02:40:07;;;;;;;19.73;6.07;;;12.80;99.90;;;11.76;100.00;101329.13;4954880;28;20072;-77
2023/07/14 02:42:39;;;;;;;20.83;6.68;;;12.80;99.90;;;11.77;100.00;101330.81;4934690;28;20391;-78
2023/07/14 02:45:07;;;;;;;21.85;6.75;;;12.80;99.90;;;11.77;100.00;101331.72;4951177;28;20069;-77
2023/07/14 02:47:40;;;;;;;16.63;6.03;;;12.80;99.90;;;11.78;100.00;101330.78;4939130;28;20122;-77
2023/07/14 02:50:07;;;;;;;22.52;7.00;;;12.80;99.90;;;11.78;100.00;101336.06;4935034;28;20526;-77
2023/07/14 02:52:33;;;;;;;21.13;6.35;;;12.80;99.90;;;11.79;100.00;101336.91;4923374;28;20101;-78
2023/07/14 02:54:58;;;;;;;22.13;6.28;;;12.80;99.90;;;11.80;100.00;101328.94;4964320;28;20402;-77
2023/07/14 02:57:24;;;;;;;;;;;12.80;99.90;;;11.77;100.00;101330.81;4906407;28;20032;-77
2023/07/14 02:59:50;;;;;;;20.00;5.43;;;12.80;99.90;;;11.75;100.00;101332.66;4956415;28;19914;-78
2023/07/14 03:02:15;;;;;;;19.92;6.05;;;12.70;99.90;;;11.77;100.00;101330.81;4949874;28;20113;-77
2023/07/14 03:04:43;;;;;;;24.73;7.15;;;12.80;99.90;;;11.78;100.00;101329.91;4960514;28;20042;-78
2023/07/14 03:07:09;;;;;;;19.35;7.15;;;12.80;99.90;;;11.82;100.00;101329.72;4945898;28;20048;-78
2023/07/14 03:09:35;;;;;;;25.35;6.90;;;12.80;99.90;;;11.86;100.00;101335.75;4970676;28;20038;-77
2023/07/14 03:12:01;;;;;;;23.55;7.35;;;12.80;99.90;;;11.90;100.00;101335.56;4956378;28;20058;-77
2023/07/14 03:14:27;;;;;;;;;;;12.80;99.90;;;11.94;100.00;101338.06;4976621;28;20165;-77
2023/07/14 03:16:53;;;;;;;17.38;6.63;;;12.90;99.90;;;11.95;100.00;101332.72;4944059;28;19917;-78
2023/07/14 03:19:18;;;;;;;19.27;6.72;;;13.00;99.90;;;12.02;100.00;101334.19;4925995;28;20054;-77
2023/07/14 03:21:44;;;;;;;25.63;7.40;;;13.00;99.90;;;12.10;100.00;101342.63;4958024;28;20121;-79
2023/07/14 03:24:17;;;;;;;19.27;7.10;;;13.10;99.90;;;12.17;100.00;101345.88;4963005;28;20098;-78
2023/07/14 03:26:43;;;;;;;22.40;6.60;;;13.20;99.90;;;12.21;100.00;101342.16;4937505;28;20101;-78
2023/07/14 03:29:09;;;;;;;15.70;6.40;;;13.20;99.90;;;12.25;100.00;101338.47;4977631;28;20054;-77
2023/07/14 03:31:35;;;;;;;28.70;6.90;;;13.20;99.90;;;12.34;100.00;101341.63;4932276;28;20521;-77
2023/07/14 03:34:10;;;;;;;18.27;5.60;;;13.30;99.90;;;12.41;100.00;101343.91;4956837;28;20026;-78
2023/07/14 03:36:37;;;;;;;22.52;6.10;;;13.40;99.90;;;12.48;100.00;101348.03;4955857;28;20030;-77
2023/07/14 03:39:26;;;;;;;23.30;6.53;;;13.40;99.90;;;12.55;100.00;101350.38;4958344;28;20043;-78
2023/07/14 03:41:55;;;;;;;16.27;5.53;;;13.40;99.90;;;12.56;100.00;101352.94;4952661;28;20062;-78
2023/07/14 03:44:21;;;;;;;22.80;6.75;;;13.50;99.90;;;12.60;100.00;101343.97;4952523;28;20035;-78
2023/07/14 03:46:48;;;;;;;28.15;7.30;;;13.50;99.90;;;12.66;100.00;101348.13;4944898;28;20047;-77
2023/07/14 03:49:21;;;;;;;19.00;5.32;;;13.80;99.90;;;13.08;100.00;101357.63;4959852;28;20034;-79
2023/07/14 03:51:47;;;;;;;19.48;5.05;;;15.30;99.90;;;14.48;100.00;101364.78;4978098;28;20031;-78
2023/07/14 03:54:13;;;;;;;17.63;4.70;;;16.60;99.90;;;15.97;100.00;101364.50;4912301;28;20030;-78
2023/07/14 03:56:40;;;;;;;15.27;3.95;;;18.00;99.90;;;17.49;94.25;101385.28;4958929;28;20546;-77
2023/07/14 03:59:15;;;;;;;23.98;4.05;;;19.20;99.90;;;18.86;83.93;101376.91;4935672;28;20039;-78
2023/07/14 04:01:41;;;;;;;15.77;3.13;;;20.50;99.90;;;20.15;76.50;101379.88;4945335;28;20059;-78
2023/07/14 04:04:06;;;;;;;15.73;3.55;;;21.50;99.90;;;21.26;71.08;101388.13;4972623;28;20047;-77
2023/07/14 04:06:37;;;;;;;;;;;21.60;99.90;;;22.35;67.95;101395.13;4931313;28;20126;-79
2023/07/14 04:09:03;;;;;;;25.05;4.25;;;23.20;99.90;;;23.04;64.26;101391.81;4960665;28;19945;-78
2023/07/14 04:11:29;;;;;;;27.52;3.58;;;23.90;99.90;;;23.63;61.89;101400.00;4965408;28;20650;-79
2023/07/14 04:13:54;;;;;;;;;;;24.30;99.90;;;24.32;60.68;101407.94;4937186;28;20092;-78
2023/07/14 04:16:23;;;;;;;20.60;3.67;;;25.00;99.90;;;24.77;58.59;101407.28;4965671;28;20360;-78
2023/07/14 04:18:55;;;;;;;12.80;2.92;;;25.40;99.90;;;25.30;56.68;101424.63;4930052;28;20530;-78
2023/07/14 04:21:24;;;;;;;17.30;3.92;;;25.90;99.90;;;25.81;55.25;101429.50;4920289;28;20046;-78
2023/07/14 04:23:54;;;;;;;14.50;2.70;;;26.30;99.90;;;26.25;54.31;101446.63;4949490;28;20043;-79
2023/07/14 04:26:22;;;;;;;21.73;3.67;;;26.60;99.90;;;26.70;52.94;101445.63;4943775;28;20582;-78
2023/07/14 04:28:48;;;;;;;15.85;3.00;;;26.90;99.90;;;27.11;51.58;101445.84;4942309;28;20034;-79
2023/07/14 04:31:15;;;;;;;21.35;2.70;;;27.30;99.90;;;27.61;50.79;101455.00;4976867;28;20043;-77
2023/07/14 04:33:50;;;;;;;14.43;2.83;;;27.60;99.70;;;28.19;49.62;101470.31;4951056;28;20033;-78
2023/07/14 04:36:16;;;;;;;11.70;2.95;;;28.00;99.30;;;28.81;48.32;101477.03;4946585;28;20030;-78
2023/07/14 04:38:58;;;;;;;16.50;2.83;;;28.40;98.80;;;29.43;46.91;101487.16;4926832;28;20086;-79
2023/07/14 04:41:24;;;;;;;13.63;2.53;;;28.90;97.40;;;29.98;45.63;101505.19;4936230;28;20158;-79
2023/07/14 04:43:50;;;;;;;11.35;2.85;;;29.30;97.30;;;30.46;44.57;101513.16;4939795;28;20052;-79
2023/07/14 04:46:15;;;;;;;;;;;29.40;96.40;;;31.25;43.84;101519.00;4986842;22;20041;-77
2023/07/14 04:48:43;;;;;;;7.82;2.40;;;30.00;96.30;;;31.60;42.64;101524.69;5002004;28;19919;-78
2023/07/14 04:51:10;;;;;;;14.23;2.60;;;30.30;95.60;;;31.93;42.07;101520.66;5010761;28;20037;-78
2023/07/14 04:53:35;;;;;;;13.57;2.53;;;30.60;94.90;;;32.18;41.13;101542.91;5014122;28;20036;-79
2023/07/14 04:56:01;;;;;;;1999.90;999.90;;;30.90;94.50;;;32.58;40.57;101546.03;4976144;28;20125;-79
2023/07/14 04:58:27;;;;;;;19.42;3.17;;;31.20;94.30;;;32.89;40.11;101562.88;5003245;28;20049;-78
2023/07/14 05:00:53;;;;;;;13.65;2.75;;;31.50;93.40;;;33.27;38.88;101564.38;5004295;28;20030;-78
2023/07/14 05:03:19;;;;;;;11.63;2.67;;;31.70;93.20;;;33.74;38.79;101564.59;4988607;28;20421;-78
2023/07/14 05:05:48;;;;;;;18.27;3.10;;;32.00;93.00;;;34.21;37.75;101573.78;4978254;28;20108;-79
2023/07/14 05:08:16;;;;;;;22.02;2.60;;;32.30;92.40;;;34.55;36.99;101580.13;4969081;28;20045;-80
2023/07/14 05:10:41;;;;;;;19.92;3.13;;;32.60;92.00;;;35.00;36.45;101583.09;4972845;28;20051;-79
2023/07/14 05:13:07;;;;;;;18.85;3.15;;;33.00;91.50;;;35.23;35.97;101599.91;5007926;28;20032;-79
2023/07/14 05:15:33;;;;;;;16.83;2.50;;;33.30;91.30;;;35.54;35.45;101598.34;4989594;28;20052;-79
2023/07/14 05:17:59;;;;;;;10.80;2.65;;;33.50;90.70;;;35.57;35.16;101600.63;5006967;28;20056;-78
2023/07/14 05:20:32;;;;;;;13.82;3.00;;;33.50;90.50;;;35.49;35.23;101603.63;4986784;28;20063;-79
2023/07/14 05:22:58;;;;;;;21.70;2.80;;;33.40;90.30;;;35.23;35.06;101599.06;4984796;28;20053;-78
2023/07/14 05:25:24;;;;;;;13.10;2.83;;;33.30;90.50;;;35.31;35.06;101605.16;5002148;23;20724;-80
2023/07/14 05:27:50;;;;;;;10.32;2.65;;;33.30;90.00;;;35.42;34.89;101609.13;4952574;28;20185;-79
2023/07/14 05:30:21;;;;;;;12.05;2.75;;;33.30;89.90;;;35.45;35.05;101608.69;4980139;28;20034;-78
2023/07/14 05:32:49;;;;;;;14.38;3.22;;;33.30;90.10;;;35.50;34.79;101605.31;4951165;28;20077;-78
2023/07/14 05:35:16;;;;;;;13.40;2.90;;;33.40;90.00;;;35.97;34.65;101608.72;4966424;28;20061;-78
2023/07/14 05:37:44;;;;;;;11.23;2.60;;;33.70;90.10;;;36.42;34.03;101613.31;4965460;28;20371;-79
2023/07/14 05:40:12;;;;;;;15.05;2.67;;;33.90;88.80;;;36.52;33.95;101609.03;4957363;28;20062;-78
2023/07/14 05:42:39;;;;;;;111.95;17.85;;;34.10;88.50;;;36.86;33.67;101609.59;4942656;28;20066;-79
2023/07/14 05:45:07;;;;;;;1.88;0.70;;;34.40;88.00;;;37.42;33.24;101618.75;4943659;28;20034;-78
2023/07/14 05:47:36;;;;;;;4.95;1.05;;;34.70;87.30;;;37.76;32.69;101619.25;4974438;28;20022;-79
2023/07/14 05:50:06;;;;;;;7.90;1.90;;;35.00;87.40;;;38.06;32.68;101618.41;4957536;28;20453;-78
2023/07/14 05:52:34;;;;;;;5.45;1.65;;;35.30;86.60;;;38.42;31.83;101616.63;4980316;28;20045;-80
2023/07/14 05:55:00;;;;;;;9.45;1.75;;;35.70;85.50;;;38.65;31.97;101616.69;4981625;28;20046;-78
2023/07/14 05:57:26;;;;;;;6.05;1.63;;;36.00;85.30;;;39.05;31.70;101620.69;4954211;28;22692;-77
2023/07/14 05:59:58;;;;;;;5.40;1.65;;;36.40;83.70;;;39.22;31.48;101615.28;4945806;28;20030;-78
2023/07/14 06:02:24;;;;;;;5.45;1.50;;;36.60;83.20;;;39.18;31.32;101620.41;4972201;28;20117;-78
2023/07/14 06:04:49;;;;;;;5.50;1.60;;;36.70;82.20;;;39.13;31.41;101612.88;5000845;23;20052;-77
2023/07/14 06:07:15;;;;;;;6.03;1.98;;;36.80;81.70;;;38.92;31.44;101606.06;5003565;28;20125;-78
2023/07/14 06:09:42;;;;;;;14.27;1.83;;;36.90;81.50;;;39.02;30.82;101610.16;4992484;28;20036;-78
2023/07/14 06:12:10;;;;;;;15.95;2.30;;;37.10;81.20;;;39.06;31.00;101606.69;5005576;28;20037;-77
2023/07/14 06:14:40;;;;;;;4.30;1.67;;;37.20;80.20;;;39.12;30.61;101610.41;4998537;28;20033;-79
2023/07/14 06:17:08;;;;;;;8.45;1.85;;;37.30;79.50;;;39.17;30.66;101607.75;5013064;28;20040;-77
2023/07/14 06:19:36;;;;;;;11.80;1.95;;;37.40;78.80;;;39.12;30.22;101604.88;5009241;28;20037;-78
2023/07/14 06:22:02;;;;;;;9.77;2.15;;;37.50;78.50;;;39.14;30.43;101608.25;5002673;28;20033;-78
2023/07/14 06:24:28;;;;;;;6.88;2.40;;;37.50;77.90;;;39.04;30.67;101600.56;4999907;28;20034;-78
2023/07/14 06:26:54;;;;;;;8.50;1.83;;;37.50;78.40;;;38.95;30.63;101604.78;4993355;28;20415;-78
2023/07/14 06:29:20;;;;;;;7.20;2.15;;;37.50;78.10;;;38.94;30.65;101601.19;5011503;28;20035;-78
2023/07/14 06:31:45;;;;;;;8.18;2.00;;;37.60;76.40;;;38.63;30.58;101593.25;5013320;28;20116;-78
2023/07/14 06:34:13;;;;;;;13.80;2.20;;;37.60;78.30;;;38.98;30.11;101598.78;5025440;28;20037;-79
2023/07/14 06:36:39;;;;;;;8.15;2.20;;;37.80;77.20;;;39.10;30.18;101590.53;4982491;28;20472;-80
2023/07/14 06:39:06;;;;;;;10.25;2.13;;;37.90;75.60;;;39.06;29.77;101597.59;5015124;28;20041;-78
2023/07/14 06:41:35;;;;;;;6.43;1.80;;;37.90;74.70;;;38.94;30.56;101595.69;5010196;28;20124;-78
2023/07/14 06:44:02;;;;;;;5.18;1.38;;;37.80;74.70;;;38.81;30.73;101587.63;5013775;28;20498;-78
2023/07/14 06:46:29;;;;;;;5.90;1.60;;;37.90;77.50;;;38.16;30.73;101574.72;5006121;28;20053;-77
2023/07/14 06:48:57;;;;;;;7.50;1.63;;;37.60;75.50;;;38.42;31.08;101583.63;5034133;28;20090;-78
2023/07/14 06:51:24;;;;;;;9.60;1.67;;;37.80;76.40;;;39.02;30.57;101586.22;4984002;28;20033;-78
2023/07/14 06:53:50;;;;;;;6.80;1.50;;;38.10;74.30;;;39.23;29.42;101590.25;4998114;28;20033;-77
2023/07/14 06:56:16;;;;;;;6.93;1.88;;;38.10;73.40;;;38.05;30.54;101584.59;5015554;28;20036;-79
2023/07/14 06:58:43;;;;;;;6.13;1.80;;;37.90;74.30;;;38.22;31.00;101576.53;4997958;28;20026;-79
2023/07/14 07:01:09;;;;;;;7.53;1.92;;;37.60;73.60;;;37.93;30.72;101572.72;5001399;28;20040;-77
2023/07/14 07:03:35;;;;;;;15.02;1.80;;;37.50;73.60;;;37.97;30.86;101571.16;5014391;28;20029;-78
2023/07/14 07:06:01;;;;;;;5.97;1.35;;;37.30;73.20;;;36.94;32.06;101557.16;4996853;28;20044;-78
2023/07/14 07:08:27;;;;;;;9.70;1.40;;;36.50;73.80;;;35.41;33.70;101540.91;4993585;28;20044;-78
2023/07/14 07:10:53;;;;;;;11.10;1.60;;;35.70;75.80;;;35.13;34.56;101542.88;5006251;28;20032;-78
2023/07/14 07:13:19;;;;;;;4.35;1.30;;;35.40;76.90;;;35.89;33.09;101540.47;5004335;28;20120;-79
2023/07/14 07:15:45;;;;;;;5.03;1.70;;;35.50;75.50;;;36.00;32.39;101558.94;5005907;28;20091;-76
2023/07/14 07:18:11;;;;;;;6.03;1.38;;;35.00;75.10;;;33.73;35.14;101516.50;4996830;28;20045;-78
2023/07/14 07:20:41;;;;;;;3.88;1.20;;;34.20;76.30;;;33.29;35.81;101514.00;5003396;28;20141;-78
2023/07/14 07:23:07;;;;;;;7.35;1.13;;;33.50;77.70;;;32.81;36.01;101503.00;4997976;28;20487;-77
2023/07/14 07:25:34;;;;;;;7.88;2.20;;;33.30;80.00;;;32.84;36.73;101499.88;5012709;28;20036;-77
2023/07/14 07:28:00;;;;;;;4.43;1.40;;;32.80;79.40;;;32.12;37.44;101484.63;5013922;28;20499;-78
2023/07/14 07:30:26;;;;;;;6.13;1.13;;;32.60;80.70;;;33.05;36.12;101492.66;5008745;28;20033;-78
2023/07/14 07:32:52;;;;;;;9.18;1.92;;;33.10;80.80;;;34.14;35.29;101507.38;4986979;28;20029;-77
2023/07/14 07:35:18;;;;;;;5.22;1.63;;;33.80;79.50;;;34.54;34.97;101508.22;5016510;28;20148;-77
2023/07/14 07:37:46;;;;;;;20.35;1.50;;;34.50;78.20;;;35.47;33.74;101515.38;5032102;28;20033;-77
2023/07/14 07:40:12;;;;;;;5.18;1.40;;;34.90;77.60;;;35.23;34.10;101525.16;5009856;28;20044;-77
2023/07/14 07:42:40;;;;;;;5.78;1.35;;;35.10;76.50;;;35.21;33.32;101530.88;5005567;28;20524;-77
2023/07/14 07:45:06;;;;;;;4.80;1.15;;;35.00;73.50;;;34.43;33.25;101526.09;4994360;28;20501;-78
2023/07/14 07:47:33;;;;;;;4.00;1.20;;;34.80;75.70;;;34.99;33.13;101527.53;5007493;28;20071;-77
2023/07/14 07:49:58;;;;;;;3.40;1.05;;;34.90;75.20;;;35.35;32.76;101528.91;5013079;28;20049;-77
2023/07/14 07:52:24;;;;;;;17.85;1.52;;;35.10;75.60;;;35.53;32.66;101529.03;5032396;28;20464;-78
2023/07/14 07:54:53;;;;;;;6.95;1.30;;;35.10;75.10;;;35.18;32.44;101534.00;5003300;28;20584;-77
2023/07/14 07:57:19;;;;;;;6.38;1.40;;;35.00;73.10;;;35.25;31.88;101540.31;5018005;28;20077;-78
2023/07/14 07:59:45;;;;;;;4.85;1.02;;;35.20;73.80;;;35.69;31.82;101540.59;5030934;28;20104;-78
2023/07/14 08:02:13;;;;;;;6.72;1.30;;;35.50;72.90;;;35.78;31.22;101532.94;5012375;28;20451;-77
2023/07/14 08:04:39;;;;;;;4.78;1.05;;;35.50;71.90;;;35.58;31.21;101539.34;5029200;28;20028;-78
2023/07/14 08:07:12;;;;;;;5.47;1.33;;;35.40;72.10;;;35.53;31.19;101534.53;4984634;28;21095;-77
2023/07/14 08:09:38;;;;;;;7.63;1.23;;;35.30;70.90;;;35.27;30.77;101549.16;5010428;28;20034;-78
2023/07/14 08:12:05;;;;;;;3.33;0.95;;;35.00;71.20;;;34.98;31.32;101541.41;5012502;28;20033;-77
2023/07/14 08:14:32;;;;;;;3.17;1.05;;;34.80;69.50;;;34.72;31.39;101534.94;5012338;28;22238;-77
2023/07/14 08:16:58;;;;;;;3.65;1.20;;;34.40;70.40;;;34.26;31.67;101533.03;5004211;28;20041;-77
2023/07/14 08:19:24;;;;;;;5.07;1.23;;;34.20;73.30;;;34.43;32.05;101528.84;5002653;28;20029;-78
2023/07/14 08:21:50;;;;;;;3.40;1.30;;;33.80;72.50;;;33.64;33.30;101513.97;5001330;28;20073;-78
2023/07/14 08:24:15;;;;;;;5.00;1.08;;;33.60;72.80;;;33.38;33.26;101508.38;5001429;28;20196;-77
2023/07/14 08:26:41;;;;;;;3.72;1.10;;;33.10;72.80;;;32.42;33.76;101504.38;5022148;28;20102;-77
2023/07/14 08:29:08;;;;;;;6.18;1.35;;;32.40;73.10;;;31.22;34.73;101475.81;5006845;28;20112;-77
2023/07/14 08:31:34;;;;;;;11.32;1.35;;;31.40;74.00;;;30.35;35.85;101476.41;5019480;28;20044;-77
2023/07/14 08:34:03;;;;;;;2.15;0.60;;;30.80;76.80;;;30.40;36.33;101465.81;5008566;28;20060;-78
2023/07/14 08:36:29;;;;;;;1.33;0.70;;;30.50;77.60;;;30.41;36.88;101467.53;5019349;28;20079;-77
2023/07/14 08:38:55;;;;;;;4.10;0.80;;;30.50;78.90;;;30.58;37.15;101467.34;5004357;28;20041;-78
2023/07/14 08:41:40;;;;;;;1.73;0.80;;;30.50;78.40;;;30.05;37.00;101451.84;5027863;28;20679;-77
2023/07/14 08:44:55;;;;;;;3.53;0.90;;;30.10;79.70;;;29.28;38.81;101438.25;5011945;28;20045;-77
2023/07/14 08:47:50;;;;;;;3.45;1.10;;;29.60;80.20;;;28.84;39.06;101434.16;4899093;29;20039;-77
2023/07/14 08:50:28;;;;;;;2.55;0.85;;;29.10;80.00;;;28.19;40.41;101421.56;4914283;28;20038;-77
2023/07/14 08:52:57;;;;;;;5.05;0.95;;;28.80;81.50;;;28.13;40.08;101416.84;4913378;28;20063;-77
2023/07/14 08:55:29;;;;;;;6.57;1.05;;;28.70;80.30;;;28.29;39.61;101415.13;4906756;28;20047;-77
2023/07/14 08:58:10;;;;;;;7.18;1.20;;;28.60;80.80;;;28.33;40.53;101414.59;4891072;28;20044;-77
2023/07/14 09:01:46;;;;;;;3.13;0.80;;;28.70;81.80;;;28.46;40.41;101421.38;4908729;28;20058;-77
2023/07/14 09:04:20;;;;;;;6.60;1.10;;;28.80;81.40;;;28.63;39.75;101415.75;4906566;28;20093;-77
2023/07/14 09:06:47;;;;;;;2.28;0.77;;;28.90;82.10;;;28.73;39.63;101414.75;4906221;28;20046;-77
2023/07/14 09:09:29;;;;;;;4.07;1.05;;;29.00;81.40;;;28.66;39.59;101406.47;4922044;28;21355;-78
2023/07/14 09:12:51;;;;;;;6.07;1.20;;;28.80;82.20;;;28.07;41.09;101409.38;4910377;28;20047;-77
2023/07/14 09:15:24;;;;;;;3.40;1.02;;;28.50;82.10;;;27.99;39.90;101410.25;4837422;29;20044;-77
2023/07/14 09:18:28;;;;;;;2.85;1.00;;;28.50;80.50;;;28.01;39.97;101407.34;4870392;29;20033;-76
2023/07/14 09:21:00;;;;;;;3.83;1.00;;;28.30;81.20;;;27.90;40.25;101407.69;4871217;29;20048;-76
2023/07/14 09:24:04;;;;;;;4.57;0.90;;;28.30;81.20;;;27.74;40.70;101411.22;4907891;28;20074;-78
2023/07/14 09:26:43;;;;;;;3.85;0.80;;;28.20;84.70;;;27.90;41.12;101405.00;4956317;28;20082;-77
2023/07/14 09:29:38;;;;;;;6.60;1.15;;;28.30;80.60;;;27.72;38.85;101405.13;4949514;28;20428;-77
2023/07/14 09:32:41;;;;;;;10.02;1.27;;;28.20;82.10;;;27.79;40.95;101398.84;4951297;28;20527;-77
2023/07/14 09:35:21;;;;;;;4.82;1.05;;;28.10;82.10;;;27.71;40.66;101396.19;4913907;28;20094;-77
2023/07/14 09:38:55;;;;;;;4.15;1.10;;;28.10;83.50;;;27.53;41.14;101388.19;4939713;28;20103;-77
2023/07/14 09:41:28;;;;;;;3.28;1.23;;;28.10;84.90;;;27.80;41.72;101391.63;4889415;29;20036;-77
2023/07/14 09:43:58;;;;;;;2.95;1.00;;;28.10;83.10;;;27.86;41.40;101390.94;4867069;29;20037;-76
2023/07/14 09:46:31;;;;;;;3.70;1.20;;;28.30;85.30;;;28.08;41.17;101391.28;4925971;28;20067;-76
2023/07/14 09:49:42;;;;;;;6.82;1.17;;;28.40;82.30;;;28.27;39.40;101407.16;4930733;28;20117;-76
2023/07/14 09:52:23;;;;;;;5.00;1.15;;;28.50;82.50;;;28.09;40.85;101395.69;4853391;29;20474;-77
2023/07/14 09:55:00;;;;;;;3.58;1.05;;;28.50;82.90;;;28.24;40.76;101396.69;4877510;29;20096;-76
2023/07/14 09:57:40;;;;;;;7.40;1.77;;;28.60;82.00;;;28.25;40.36;101394.81;4866210;29;20056;-78
2023/07/14 10:00:24;;;;;;;6.82;1.48;;;28.70;81.60;;;28.35;39.70;101387.38;4873985;29;20057;-77
2023/07/14 10:03:25;;;;;;;3.95;1.17;;;28.70;84.80;;;28.49;41.85;101385.81;4849569;29;20108;-76
2023/07/14 10:06:11;;;;;;;6.10;1.27;;;28.90;82.70;;;28.68;40.40;101385.44;4858260;29;20557;-76
2023/07/14 10:09:20;;;;;;;2.90;1.15;;;29.00;80.50;;;28.22;39.78;101382.47;4865875;29;20045;-76
2023/07/14 10:11:55;;;;;;;3.50;0.95;;;28.80;80.50;;;28.18;39.63;101387.38;4817640;29;21689;-76
2023/07/14 10:14:36;;;;;;;5.45;1.25;;;28.60;81.10;;;28.06;39.92;101380.63;4808349;29;20157;-75
2023/07/14 10:17:07;;;;;;;8.60;1.33;;;28.50;82.10;;;28.09;40.43;101371.31;4804329;29;20097;-76
2023/07/14 10:19:44;;;;;;;3.28;0.80;;;28.50;81.70;;;28.08;40.12;101358.78;4854074;29;20042;-76
2023/07/14 10:22:17;;;;;;;77.28;8.90;;;28.60;81.10;;;28.16;40.00;101369.63;4846968;29;20050;-76
2023/07/14 10:24:56;;;;;;;21.90;1.90;;;28.60;81.60;;;28.23;40.00;101367.94;4846529;29;20045;-75
2023/07/14 10:27:32;;;;;;;3.78;1.25;;;28.60;82.30;;;28.36;40.15;101362.81;4838867;29;20118;-76